Time;durP1;ratioP1;P1;durP2;ratioP2;P2;SDS_P1;SDS_P2;PMS_P1;PMS_P2;Temp;Humidity;BMP_temperature;BMP_pressure;BME280_temperature;BME280_humidity;BME280_pressure;Samples;Min_cycle;Max_cycle;Signal;HPM_P1;HPM_P2
2024/01/04 00:02:15;;;;;;;0.38;0.20;;;9.60;99.90;;;9.48;100.00;98954.72;5219116;28;20061;-48
2024/01/04 00:04:47;;;;;;;0.75;0.20;;;9.60;99.90;;;9.43;100.00;98952.94;5217953;28;20048;-49
2024/01/04 00:07:21;;;;;;;2.63;0.50;;;9.50;99.90;;;9.40;100.00;98956.38;5239741;28;20063;-48
2024/01/04 00:09:53;;;;;;;0.25;0.25;;;9.50;99.90;;;9.37;100.00;98964.13;5219000;28;20048;-49
2024/01/04 00:12:25;;;;;;;0.50;0.40;;;9.40;99.90;;;9.37;100.00;98955.47;5215630;28;20056;-47
2024/01/04 00:14:59;;;;;;;0.20;0.20;;;9.40;99.90;;;9.30;100.00;98954.53;5208816;28;20041;-47
2024/01/04 00:17:32;;;;;;;0.32;0.32;;;9.40;99.90;;;9.23;100.00;98973.50;5230602;28;20056;-48
2024/01/04 00:20:05;;;;;;;0.30;0.30;;;9.30;99.90;;;9.21;100.00;98960.50;5223555;28;20897;-48
2024/01/04 00:22:39;;;;;;;0.30;0.28;;;9.30;99.90;;;9.19;100.00;98972.63;5220547;28;20041;-48
2024/01/04 00:25:11;;;;;;;0.32;0.32;;;9.30;99.90;;;9.14;100.00;98992.50;5228738;28;20407;-48
2024/01/04 00:27:44;;;;;;;0.50;0.40;;;9.20;99.90;;;9.09;100.00;98991.56;5226860;28;20073;-48
2024/01/04 00:30:17;;;;;;;2.35;0.60;;;9.20;99.90;;;9.09;100.00;98990.69;5239189;28;20052;-48
2024/01/04 00:32:49;;;;;;;0.88;0.40;;;9.10;99.90;;;9.09;100.00;98995.88;5212879;28;20072;-48
2024/01/04 00:35:22;;;;;;;0.47;0.40;;;9.20;99.90;;;9.11;100.00;98996.75;5227559;28;20055;-49
2024/01/04 00:37:57;;;;;;;0.68;0.50;;;9.20;99.90;;;9.10;100.00;99014.09;5236700;28;20044;-49
2024/01/04 00:40:29;;;;;;;0.50;0.40;;;9.20;99.90;;;9.09;100.00;99011.47;5223141;28;20060;-48
2024/01/04 00:43:03;;;;;;;0.35;0.35;;;9.20;99.90;;;9.11;100.00;99010.63;5206229;28;20030;-48
2024/01/04 00:45:36;;;;;;;0.80;0.45;;;9.20;99.90;;;9.13;100.00;99013.28;5220231;28;20546;-49
2024/01/04 00:48:09;;;;;;;1.05;0.38;;;9.20;99.90;;;9.12;100.00;99020.16;5214839;28;20054;-48
2024/01/04 00:50:42;;;;;;;0.38;0.32;;;9.20;99.90;;;9.15;100.00;99021.94;5205416;28;20527;-48
2024/01/04 00:53:15;;;;;;;2.35;0.43;;;9.20;99.90;;;9.18;100.00;99033.25;5211278;28;20057;-48
2024/01/04 00:55:48;;;;;;;0.95;0.52;;;9.20;99.90;;;9.21;100.00;99029.84;5210799;28;20140;-48
2024/01/04 00:58:20;;;;;;;2.85;0.63;;;9.30;99.90;;;9.24;100.00;99038.53;5215985;28;20067;-48
2024/01/04 01:00:53;;;;;;;0.30;0.30;;;9.30;99.90;;;9.28;100.00;99038.56;5226038;28;20436;-48
2024/01/04 01:03:25;;;;;;;0.95;0.50;;;9.30;99.90;;;9.30;100.00;99044.66;5213600;28;20110;-49
2024/01/04 01:05:58;;;;;;;0.88;0.45;;;9.30;99.90;;;9.31;100.00;99049.88;5213421;28;20040;-49
2024/01/04 01:08:32;;;;;;;0.55;0.47;;;9.30;99.90;;;9.35;100.00;99059.47;5224602;28;20045;-47
2024/01/04 01:11:05;;;;;;;0.40;0.40;;;9.30;99.90;;;9.35;100.00;99051.66;5209373;28;20411;-48
2024/01/04 01:13:37;;;;;;;1.35;0.70;;;9.40;99.90;;;9.35;100.00;99056.88;5234217;28;20033;-47
2024/01/04 01:16:10;;;;;;;4.38;0.50;;;9.30;99.90;;;9.38;100.00;99071.63;5212970;28;20058;-48
2024/01/04 01:18:42;;;;;;;1.67;0.40;;;9.40;99.90;;;9.38;100.00;99075.09;5213131;28;20056;-48
2024/01/04 01:21:15;;;;;;;0.75;0.60;;;9.40;99.90;;;9.40;100.00;99083.81;5203772;28;20068;-48
2024/01/04 01:23:49;;;;;;;1.45;0.40;;;9.40;99.90;;;9.41;100.00;99092.47;5220096;28;20068;-48
2024/01/04 01:26:21;;;;;;;1.38;0.63;;;9.40;99.90;;;9.42;100.00;99095.09;5219732;28;20053;-48
2024/01/04 01:28:53;;;;;;;3.03;0.52;;;9.40;99.90;;;9.44;100.00;99106.38;5210309;28;20045;-49
2024/01/04 01:31:26;;;;;;;3.92;0.50;;;9.40;99.90;;;9.44;100.00;99108.97;5218351;28;20529;-48
2024/01/04 01:33:58;;;;;;;2.45;0.80;;;9.50;99.90;;;9.41;100.00;99114.16;5208512;28;20048;-49
2024/01/04 01:36:30;;;;;;;1.75;0.90;;;9.40;99.90;;;9.42;100.00;99118.50;5237836;28;20059;-49
2024/01/04 01:39:04;;;;;;;0.90;0.70;;;9.50;99.90;;;9.36;100.00;99123.59;5214795;28;20115;-48
2024/01/04 01:41:37;;;;;;;2.15;0.80;;;9.40;99.90;;;9.35;100.00;99121.00;5228475;28;20061;-48
2024/01/04 01:44:10;;;;;;;0.65;0.65;;;9.40;99.90;;;9.30;100.00;99123.53;5215973;28;20049;-48
2024/01/04 01:46:43;;;;;;;2.80;0.95;;;9.40;99.90;;;9.27;100.00;99127.84;5219202;28;20144;-48
2024/01/04 01:49:15;;;;;;;0.93;0.52;;;9.40;99.90;;;9.21;100.00;99126.88;5220827;28;20044;-49
2024/01/04 01:51:48;;;;;;;1.20;0.95;;;9.30;99.90;;;9.20;100.00;99129.47;5229949;28;20530;-47
2024/01/04 01:54:22;;;;;;;1.45;0.68;;;9.30;99.90;;;9.21;100.00;99134.69;5228648;28;20110;-49
2024/01/04 01:56:54;;;;;;;3.03;0.77;;;9.30;99.90;;;9.24;100.00;99142.50;5236411;28;20059;-49
2024/01/04 01:59:27;;;;;;;1.83;0.70;;;9.30;99.90;;;9.25;100.00;99141.66;5213421;28;20057;-49
2024/01/04 02:02:00;;;;;;;1.80;0.60;;;9.30;99.90;;;9.22;100.00;99145.97;5219963;28;20049;-48
2024/01/04 02:04:33;;;;;;;3.20;0.60;;;9.30;99.90;;;9.21;100.00;99145.09;5217607;28;20049;-48
2024/01/04 02:07:05;;;;;;;2.92;0.90;;;9.30;99.90;;;9.26;100.00;99150.38;5233633;28;20053;-48
2024/01/04 02:09:39;;;;;;;2.58;0.65;;;9.30;99.90;;;9.31;100.00;99163.41;5228685;28;20450;-50
2024/01/04 02:12:13;;;;;;;4.35;0.95;;;9.30;99.90;;;9.27;100.00;99159.91;5214577;28;20056;-48
2024/01/04 02:14:45;;;;;;;4.03;0.90;;;9.30;99.90;;;9.25;100.00;99170.25;5219637;28;20049;-49
2024/01/04 02:17:18;;;;;;;3.72;1.05;;;9.30;99.90;;;9.26;100.00;99176.34;5221001;28;20069;-49
2024/01/04 02:19:51;;;;;;;3.35;0.90;;;9.30;99.90;;;9.25;100.00;99179.78;5213547;28;20048;-49
2024/01/04 02:22:23;;;;;;;1.88;1.25;;;9.30;99.90;;;9.25;100.00;99175.44;5220281;28;20144;-49
2024/01/04 02:24:57;;;;;;;1.45;1.20;;;9.30;99.90;;;9.21;100.00;99178.88;5212931;28;20056;-48
2024/01/04 02:27:29;;;;;;;1.67;1.08;;;9.30;99.90;;;9.22;100.00;99184.97;5222976;28;20594;-48
2024/01/04 02:30:02;;;;;;;2.72;1.33;;;9.30;99.90;;;9.20;100.00;99186.66;5210463;28;20052;-48
2024/01/04 02:32:34;;;;;;;3.05;1.33;;;9.30;99.90;;;9.20;100.00;99189.25;5221039;28;20080;-48
2024/01/04 02:35:08;;;;;;;2.53;1.48;;;9.30;99.90;;;9.24;100.00;99206.63;5223144;28;20051;-48
2024/01/04 02:37:40;;;;;;;1.63;1.25;;;9.30;99.90;;;9.25;100.00;99205.78;5231857;28;20148;-49
2024/01/04 02:40:14;;;;;;;1.70;1.30;;;9.30;99.90;;;9.24;100.00;99193.63;5221270;28;20539;-48
2024/01/04 02:42:47;;;;;;;2.65;1.15;;;9.30;99.90;;;9.27;100.00;99203.22;5235138;28;20232;-49
2024/01/04 02:45:19;;;;;;;2.30;1.10;;;9.30;99.90;;;9.30;100.00;99206.72;5218013;28;20064;-48
2024/01/04 02:47:52;;;;;;;4.53;1.20;;;9.40;99.90;;;9.33;100.00;99219.78;5235173;28;20044;-49
2024/01/04 02:50:24;;;;;;;1.58;1.20;;;9.40;99.90;;;9.35;100.00;99215.47;5220075;28;20048;-49
2024/01/04 02:52:56;;;;;;;4.38;1.50;;;9.40;99.90;;;9.34;100.00;99224.13;5216619;28;20049;-48
2024/01/04 02:55:30;;;;;;;1.60;1.00;;;9.40;99.90;;;9.34;100.00;99241.47;5214455;28;20049;-49
2024/01/04 02:58:03;;;;;;;1.40;0.82;;;9.40;99.90;;;9.35;100.00;99233.69;5226988;28;20060;-49
2024/01/04 03:00:35;;;;;;;3.30;1.10;;;9.40;99.90;;;9.34;100.00;99252.75;5211003;28;20068;-48
2024/01/04 03:03:07;;;;;;;3.38;1.13;;;9.40;99.90;;;9.35;100.00;99248.41;5230920;28;20075;-48
2024/01/04 03:05:40;;;;;;;4.07;1.17;;;9.40;99.90;;;9.33;100.00;99256.19;5215374;28;20064;-48
2024/01/04 03:08:12;;;;;;;4.63;1.17;;;9.40;99.90;;;9.31;100.00;99257.88;5221359;28;20128;-48
2024/01/04 03:10:46;;;;;;;1.45;0.70;;;9.40;99.90;;;9.33;100.00;99266.59;5221603;28;20144;-48
2024/01/04 03:13:18;;;;;;;1.60;0.85;;;9.40;99.90;;;9.32;100.00;99266.56;5232018;28;20045;-48
2024/01/04 03:15:51;;;;;;;2.80;1.08;;;9.40;99.90;;;9.29;100.00;99270.00;5238201;28;20053;-48
2024/01/04 03:18:23;;;;;;;2.60;0.82;;;9.40;99.90;;;9.27;100.00;99278.63;5219075;28;20131;-48
2024/01/04 03:20:55;;;;;;;2.22;0.77;;;9.30;99.90;;;9.21;100.00;99279.41;5219285;28;20058;-48
2024/01/04 03:23:28;;;;;;;1.48;0.93;;;9.40;99.90;;;9.26;100.00;99285.56;5217045;28;20515;-48
2024/01/04 03:26:02;;;;;;;2.63;1.23;;;9.30;99.90;;;9.27;100.00;99291.63;5219280;28;20104;-48
2024/01/04 03:28:34;;;;;;;1.40;0.95;;;9.30;99.90;;;9.27;100.00;99286.44;5228778;28;20241;-47
2024/01/04 03:31:06;;;;;;;2.75;0.90;;;9.30;99.90;;;9.26;100.00;99288.16;5215896;28;20040;-48
2024/01/04 03:33:39;;;;;;;3.15;1.27;;;9.30;99.90;;;9.30;100.00;99295.13;5235368;28;20045;-49
2024/01/04 03:36:14;;;;;;;2.45;0.80;;;9.30;99.90;;;9.31;100.00;99296.88;5239795;28;20060;-49
2024/01/04 03:38:46;;;;;;;;;;;9.30;99.90;;;9.32;100.00;99296.03;5236406;28;20108;-48
2024/01/04 03:41:21;;;;;;;3.22;0.82;;;9.30;99.90;;;9.30;100.00;99309.88;5218366;28;20290;-48
2024/01/04 03:43:53;;;;;;;3.92;1.17;;;9.30;99.90;;;9.31;100.00;99303.81;5235909;28;20049;-48
2024/01/04 03:46:25;;;;;;;2.17;0.90;;;9.40;99.90;;;9.30;100.00;99321.13;5232821;28;20057;-48
2024/01/04 03:48:58;;;;;;;2.13;1.10;;;9.30;99.90;;;9.32;100.00;99322.03;5220709;28;20048;-49
2024/01/04 03:51:30;;;;;;;1.23;0.70;;;9.40;99.90;;;9.30;100.00;99334.13;5229232;28;20436;-48
2024/01/04 03:54:03;;;;;;;2.17;0.93;;;9.30;99.90;;;9.30;100.00;99344.53;5222566;28;20052;-49
2024/01/04 03:56:37;;;;;;;2.00;0.80;;;9.40;99.90;;;9.33;100.00;99351.53;5221229;28;20447;-48
2024/01/04 03:59:09;;;;;;;4.18;1.60;;;9.40;99.90;;;9.36;100.00;99347.25;5214778;28;20103;-48
2024/01/04 04:01:45;;;;;;;1.73;1.30;;;9.40;99.90;;;9.38;100.00;99337.72;5239277;28;20060;-48
2024/01/04 04:04:18;;;;;;;1.77;1.13;;;9.40;99.90;;;9.38;100.00;99353.34;5217768;28;20442;-48
2024/01/04 04:06:50;;;;;;;5.65;1.02;;;9.40;99.90;;;9.38;100.00;99362.88;5221315;28;20083;-48
2024/01/04 04:09:23;;;;;;;2.47;0.98;;;9.40;99.90;;;9.38;100.00;99362.88;5231090;28;20052;-48
2024/01/04 04:11:56;;;;;;;1.58;1.00;;;9.40;99.90;;;9.37;100.00;99362.00;5237443;28;20062;-49
2024/01/04 04:14:29;;;;;;;2.47;1.10;;;9.40;99.90;;;9.40;100.00;99366.38;5237846;28;20235;-48
2024/01/04 04:17:02;;;;;;;3.35;1.40;;;9.40;99.90;;;9.38;100.00;99370.66;5213787;28;20049;-48
2024/01/04 04:19:34;;;;;;;3.65;1.10;;;9.40;99.90;;;9.36;100.00;99370.66;5231879;28;20049;-49
2024/01/04 04:22:06;;;;;;;2.83;1.13;;;9.40;99.90;;;9.35;100.00;99368.91;5218086;28;20069;-48
2024/01/04 04:24:39;;;;;;;3.15;1.48;;;9.40;99.90;;;9.38;100.00;99378.47;5229539;28;20048;-48
2024/01/04 04:27:12;;;;;;;2.03;1.25;;;9.40;99.90;;;9.38;100.00;99378.47;5222142;28;20060;-48
2024/01/04 04:29:45;;;;;;;6.70;1.38;;;9.40;99.90;;;9.39;100.00;99386.31;5221129;28;20056;-48
2024/01/04 04:32:18;;;;;;;1.45;1.05;;;9.40;99.90;;;9.40;100.00;99385.47;5223183;28;20044;-48
2024/01/04 04:34:50;;;;;;;2.22;1.38;;;9.40;99.90;;;9.40;100.00;99385.47;5229719;28;20522;-48
2024/01/04 04:37:23;;;;;;;1.42;0.82;;;9.40;99.90;;;9.39;100.00;99391.53;5217776;28;20660;-49
2024/01/04 04:39:55;;;;;;;3.88;1.00;;;9.40;99.90;;;9.39;100.00;99395.81;5226332;28;20126;-48
2024/01/04 04:42:29;;;;;;;1.23;1.05;;;9.40;99.90;;;9.40;100.00;99395.88;5218327;28;20140;-49
2024/01/04 04:45:02;;;;;;;2.60;0.93;;;9.40;99.90;;;9.39;100.00;99396.72;5212884;28;20048;-50
2024/01/04 04:47:34;;;;;;;2.67;1.20;;;9.40;99.90;;;9.42;100.00;99403.69;5216832;28;20048;-48
2024/01/04 04:50:08;;;;;;;4.32;0.90;;;9.40;99.90;;;9.46;100.00;99398.56;5220763;28;20411;-48
2024/01/04 04:52:40;;;;;;;1.83;1.20;;;9.50;99.90;;;9.49;100.00;99406.41;5227951;28;20048;-48
2024/01/04 04:55:13;;;;;;;6.20;1.75;;;9.50;99.90;;;9.47;100.00;99404.66;5238524;28;20044;-48
2024/01/04 04:57:46;;;;;;;5.93;1.25;;;9.50;99.90;;;9.47;100.00;99415.06;5235240;28;20060;-49
2024/01/04 05:00:19;;;;;;;3.47;1.33;;;9.50;99.90;;;9.46;100.00;99408.09;5238354;28;20041;-48
2024/01/04 05:02:52;;;;;;;2.65;1.48;;;9.50;99.90;;;9.45;100.00;99417.63;5216196;28;20092;-49
2024/01/04 05:05:24;;;;;;;4.43;1.40;;;9.50;99.90;;;9.47;100.00;99425.47;5218041;28;20132;-48
2024/01/04 05:07:57;;;;;;;2.30;1.33;;;9.50;99.90;;;9.46;100.00;99434.13;5211460;28;20050;-48
2024/01/04 05:10:29;;;;;;;3.60;1.48;;;9.50;99.90;;;9.48;100.00;99427.22;5214111;28;20041;-48
2024/01/04 05:13:04;;;;;;;2.78;1.30;;;9.50;99.90;;;9.51;100.00;99437.66;5212089;28;20048;-48
2024/01/04 05:15:36;;;;;;;1.15;0.88;;;9.50;99.90;;;9.51;100.00;99435.91;5226928;28;20140;-49
2024/01/04 05:18:09;;;;;;;2.17;0.82;;;9.50;99.90;;;9.52;100.00;99445.50;5209917;28;20059;-48
2024/01/04 05:20:41;;;;;;;0.95;0.82;;;9.50;99.90;;;9.53;100.00;99441.19;5219446;28;20045;-49
2024/01/04 05:23:14;;;;;;;1.80;0.90;;;9.50;99.90;;;9.52;100.00;99450.72;5216643;28;20048;-48
2024/01/04 05:25:46;;;;;;;0.98;0.60;;;9.50;99.90;;;9.50;100.00;99456.72;5222235;28;20045;-48
2024/01/04 05:28:20;;;;;;;1.00;0.70;;;9.50;99.90;;;9.42;100.00;99458.31;5216583;28;20045;-48
2024/01/04 05:30:52;;;;;;;1.08;0.82;;;9.50;99.90;;;9.34;100.00;99460.78;5212217;28;20057;-49
2024/01/04 05:33:25;;;;;;;2.50;0.60;;;9.40;99.90;;;9.33;100.00;99468.56;5211899;28;20507;-49
2024/01/04 05:35:57;;;;;;;0.93;0.80;;;9.40;99.90;;;9.31;100.00;99471.09;5213571;28;20087;-48
2024/01/04 05:38:29;;;;;;;2.67;0.70;;;9.40;99.90;;;9.31;100.00;99467.63;5238222;28;20103;-48
2024/01/04 05:41:02;;;;;;;0.82;0.60;;;9.30;99.90;;;9.30;100.00;99471.09;5213718;28;20057;-48
2024/01/04 05:43:36;;;;;;;2.33;0.90;;;9.30;99.90;;;9.29;100.00;99479.72;5230736;28;20057;-49
2024/01/04 05:46:08;;;;;;;1.55;1.00;;;9.30;99.90;;;9.28;100.00;99481.47;5219357;28;20045;-48
2024/01/04 05:48:41;;;;;;;2.20;0.85;;;9.30;99.90;;;9.28;100.00;99481.47;5222425;28;20407;-48
2024/01/04 05:51:13;;;;;;;1.02;0.57;;;9.30;99.90;;;9.28;100.00;99478.84;5220050;28;20534;-48
2024/01/04 05:53:45;;;;;;;1.35;0.63;;;9.30;99.90;;;9.29;100.00;99504.00;5219633;28;20049;-48
2024/01/04 05:56:18;;;;;;;1.33;0.80;;;9.30;99.90;;;9.22;100.00;99499.53;5217952;28;20052;-48
2024/01/04 05:58:51;;;;;;;0.65;0.50;;;9.30;99.90;;;9.18;100.00;99492.50;5207618;28;20034;-49
2024/01/04 06:01:24;;;;;;;0.52;0.50;;;9.20;99.90;;;9.12;100.00;99501.06;5221324;28;20049;-48
2024/01/04 06:03:58;;;;;;;1.67;0.82;;;9.20;99.90;;;9.07;100.00;99514.84;5206453;28;20137;-49
2024/01/04 06:06:30;;;;;;;0.52;0.50;;;9.20;99.90;;;9.04;100.00;99501.75;5215722;28;20064;-48
2024/01/04 06:09:03;;;;;;;0.88;0.60;;;9.10;99.90;;;9.00;100.00;99516.44;5218696;28;20041;-48
2024/01/04 06:11:38;;;;;;;1.85;0.88;;;9.10;99.90;;;9.00;100.00;99515.53;5222631;28;20079;-48
2024/01/04 06:14:11;;;;;;;2.78;0.73;;;9.10;99.90;;;8.94;100.00;99522.38;5219988;28;20116;-47
2024/01/04 06:16:44;;;;;;;1.95;0.70;;;9.10;99.90;;;8.88;100.00;99532.66;5229177;28;20049;-48
2024/01/04 06:19:16;;;;;;;1.02;0.52;;;9.00;99.90;;;8.85;100.00;99540.34;5212413;28;20064;-49
2024/01/04 06:21:48;;;;;;;2.38;0.93;;;9.00;99.90;;;8.85;100.00;99542.97;5222553;28;20530;-48
2024/01/04 06:24:21;;;;;;;1.27;1.00;;;9.00;99.90;;;8.87;100.00;99546.50;5208652;28;20041;-47
2024/01/04 06:26:53;;;;;;;1.45;0.73;;;9.00;99.90;;;8.87;100.00;99550.81;5214011;28;20512;-48
2024/01/04 06:29:27;;;;;;;1.90;0.90;;;9.00;99.90;;;8.88;100.00;99552.56;5232343;28;20052;-48
2024/01/04 06:31:59;;;;;;;1.88;0.75;;;9.00;99.90;;;8.90;100.00;99556.94;5213358;28;20041;-48
2024/01/04 06:34:32;;;;;;;1.35;0.70;;;9.00;99.90;;;8.91;100.00;99561.28;5215044;28;20052;-49
2024/01/04 06:37:04;;;;;;;1.42;0.90;;;9.00;99.90;;;8.97;100.00;99566.63;5208873;28;20037;-48
2024/01/04 06:39:37;;;;;;;1.63;0.98;;;9.00;99.90;;;8.98;100.00;99567.50;5218098;28;20045;-48
2024/01/04 06:42:09;;;;;;;2.85;1.13;;;9.00;99.90;;;9.02;100.00;99581.44;5211481;28;20401;-48
2024/01/04 06:44:43;;;;;;;2.05;0.77;;;9.00;99.90;;;9.03;100.00;99583.19;5229679;28;20050;-47
2024/01/04 06:47:15;;;;;;;2.95;1.30;;;9.10;99.90;;;9.01;100.00;99579.69;5219469;28;20106;-48
2024/01/04 06:49:48;;;;;;;3.10;1.05;;;9.10;99.90;;;9.00;100.00;99588.31;5230564;28;20251;-48
2024/01/04 06:52:20;;;;;;;0.68;0.68;;;9.10;99.90;;;9.01;100.00;99583.16;5237098;28;20037;-47
2024/01/04 06:54:53;;;;;;;1.92;1.00;;;9.10;99.90;;;9.03;100.00;99588.41;5209865;28;20053;-48
2024/01/04 06:57:25;;;;;;;0.77;0.60;;;9.10;99.90;;;9.05;100.00;99586.69;5216973;28;20403;-49
2024/01/04 06:59:59;;;;;;;3.95;0.85;;;9.10;99.90;;;9.03;100.00;99586.66;5219560;28;20051;-48
2024/01/04 07:02:34;;;;;;;1.27;1.13;;;9.10;99.90;;;9.05;100.00;99597.09;5210230;28;20041;-48
2024/01/04 07:05:09;;;;;;;1.92;1.52;;;9.10;99.90;;;9.04;100.00;99600.53;5215904;28;20463;-48
2024/01/04 07:07:41;;;;;;;1.70;0.88;;;9.10;99.90;;;9.00;100.00;99612.59;5215204;28;20385;-49
2024/01/04 07:10:14;;;;;;;1.80;1.10;;;9.00;99.90;;;8.98;100.00;99620.34;5214135;28;20508;-47
2024/01/04 07:12:47;;;;;;;3.17;1.48;;;9.10;99.90;;;9.01;100.00;99624.75;5212460;28;20044;-48
2024/01/04 07:15:21;;;;;;;2.72;1.60;;;9.10;99.90;;;9.03;100.00;99619.59;5234320;28;20049;-47
2024/01/04 07:17:54;;;;;;;3.55;1.98;;;9.10;99.90;;;9.00;100.00;99625.59;5217802;28;20047;-48
2024/01/04 07:20:26;;;;;;;3.45;1.85;;;9.00;99.90;;;8.96;100.00;99624.66;5211647;28;20076;-48
2024/01/04 07:22:59;;;;;;;4.68;1.30;;;9.00;99.90;;;8.93;100.00;99614.19;5213797;28;20037;-47
2024/01/04 07:25:34;;;;;;;2.97;1.20;;;9.00;99.90;;;8.87;100.00;99621.84;5216381;28;20068;-48
2024/01/04 07:28:07;;;;;;;2.58;1.40;;;9.00;99.90;;;8.84;100.00;99628.69;5210403;28;20118;-48
2024/01/04 07:30:41;;;;;;;2.40;1.10;;;8.90;99.90;;;8.85;100.00;99635.63;5219384;28;20041;-47
2024/01/04 07:33:15;;;;;;;3.08;1.10;;;8.90;99.90;;;8.86;100.00;99627.88;5237221;28;20542;-48
2024/01/04 07:35:47;;;;;;;2.83;0.95;;;8.90;99.90;;;8.87;100.00;99640.03;5213653;28;20048;-48
2024/01/04 07:38:21;;;;;;;1.77;0.85;;;8.90;99.90;;;8.91;100.00;99633.19;5207863;28;20062;-48
2024/01/04 07:40:53;;;;;;;1.08;0.98;;;8.90;99.90;;;8.94;100.00;99641.94;5229166;28;20410;-47
2024/01/04 07:43:26;;;;;;;1.23;0.85;;;9.00;99.90;;;9.00;100.00;99640.28;5205552;28;20041;-48
2024/01/04 07:46:00;;;;;;;1.45;0.93;;;9.00;99.90;;;9.04;100.00;99636.94;5212182;28;20049;-48
2024/01/04 07:48:32;;;;;;;1.70;0.98;;;9.00;99.90;;;9.05;100.00;99646.47;5209289;28;20090;-48
2024/01/04 07:51:05;;;;;;;3.90;1.70;;;9.10;99.90;;;9.08;100.00;99649.16;5222626;28;20120;-48
2024/01/04 07:53:39;;;;;;;1.90;1.45;;;9.10;99.90;;;9.11;100.00;99649.22;5221184;28;20056;-48
2024/01/04 07:56:12;;;;;;;4.18;1.70;;;9.10;99.90;;;9.13;100.00;99657.94;5209485;28;20049;-48
2024/01/04 07:58:44;;;;;;;5.07;1.92;;;9.10;99.90;;;9.13;100.00;99664.03;5225524;28;20839;-47
2024/01/04 08:01:18;;;;;;;4.15;1.80;;;9.10;99.90;;;9.17;100.00;99665.84;5218989;28;20573;-48
2024/01/04 08:03:51;;;;;;;3.28;1.95;;;9.20;99.90;;;9.19;100.00;99668.47;5221904;28;20040;-48
2024/01/04 08:06:23;;;;;;;3.65;1.55;;;9.20;99.90;;;9.22;100.00;99663.34;5227561;28;20048;-48
2024/01/04 08:08:55;;;;;;;6.35;1.50;;;9.20;99.90;;;9.25;100.00;99668.59;5218851;28;20418;-48
2024/01/04 08:11:28;;;;;;;2.30;1.30;;;9.20;99.90;;;9.27;100.00;99666.94;5223199;28;20049;-49
2024/01/04 08:14:00;;;;;;;3.17;1.58;;;9.20;99.90;;;9.30;100.00;99669.59;5215711;28;20480;-48
2024/01/04 08:16:34;;;;;;;3.10;1.25;;;9.30;99.90;;;9.30;100.00;99664.38;5222012;28;20033;-50
2024/01/04 08:19:06;;;;;;;1.55;1.15;;;9.30;99.90;;;9.33;100.00;99669.66;5214612;28;20045;-48
2024/01/04 08:21:39;;;;;;;2.55;1.40;;;9.30;99.90;;;9.35;100.00;99670.56;5215665;28;20045;-48
2024/01/04 08:24:11;;;;;;;1.98;1.02;;;9.30;99.90;;;9.37;100.00;99678.41;5236228;28;20052;-48
2024/01/04 08:26:43;;;;;;;2.53;1.20;;;9.30;99.90;;;9.39;100.00;99676.69;5237833;28;20041;-48
2024/01/04 08:29:16;;;;;;;3.00;1.08;;;9.30;99.90;;;9.39;100.00;99692.31;5211402;28;20063;-48
2024/01/04 08:31:50;;;;;;;0.77;0.77;;;9.40;99.90;;;9.40;100.00;99684.56;5222083;28;20063;-48
2024/01/04 08:34:23;;;;;;;2.30;0.90;;;9.40;99.90;;;9.40;100.00;99684.56;5216526;28;20103;-47
2024/01/04 08:36:55;;;;;;;2.20;0.75;;;9.40;99.90;;;9.41;100.00;99686.31;5228997;28;20515;-48
2024/01/04 08:39:28;;;;;;;3.40;0.95;;;9.40;99.90;;;9.43;100.00;99687.22;5223588;28;20060;-48
2024/01/04 08:42:00;;;;;;;1.10;1.00;;;9.40;99.90;;;9.45;100.00;99692.44;5215946;28;20051;-48
2024/01/04 08:44:33;;;;;;;1.80;1.15;;;9.40;99.90;;;9.45;100.00;99693.34;5227190;28;20049;-48
2024/01/04 08:47:06;;;;;;;4.30;0.82;;;9.40;99.90;;;9.75;100.00;99694.81;5220543;28;20060;-48
2024/01/04 08:49:39;;;;;;;2.17;0.90;;;9.60;99.90;;;9.87;100.00;99697.69;5219336;28;20048;-48
2024/01/04 08:52:11;;;;;;;2.42;1.10;;;9.80;99.90;;;9.84;100.00;99699.31;5219376;28;20108;-48
2024/01/04 08:54:44;;;;;;;4.43;0.95;;;9.80;99.90;;;9.81;100.00;99712.28;5232339;28;20037;-48
2024/01/04 08:57:17;;;;;;;1.35;1.02;;;9.80;99.90;;;9.83;100.00;99711.47;5210438;28;20044;-48
2024/01/04 08:59:49;;;;;;;1.92;0.70;;;9.80;99.90;;;9.84;100.00;99726.22;5220054;28;20068;-47
2024/01/04 09:02:23;;;;;;;1.58;0.63;;;9.90;99.90;;;9.82;100.00;99727.94;5220993;28;20056;-47
2024/01/04 09:04:55;;;;;;;1.88;0.85;;;9.80;99.90;;;9.77;100.00;99721.75;5216829;28;20052;-48
2024/01/04 09:07:28;;;;;;;0.65;0.63;;;9.80;99.90;;;9.71;100.00;99732.03;5210892;28;20045;-48
2024/01/04 09:10:00;;;;;;;4.50;0.63;;;9.70;99.90;;;9.68;100.00;99727.66;5204611;28;20049;-49
2024/01/04 09:12:33;;;;;;;1.17;0.75;;;9.70;99.90;;;9.69;100.00;99733.72;5215733;28;20438;-48
2024/01/04 09:15:07;;;;;;;0.70;0.60;;;9.70;99.90;;;9.68;100.00;99734.56;5207387;28;20318;-48
2024/01/04 09:17:42;;;;;;;3.70;0.98;;;9.70;99.90;;;9.69;100.00;99742.41;5212952;28;20061;-48
2024/01/04 09:20:16;;;;;;;1.27;0.65;;;9.70;99.90;;;9.70;100.00;99738.94;5217072;28;20080;-48
2024/01/04 09:22:48;;;;;;;2.88;1.10;;;9.70;99.90;;;9.73;100.00;99745.97;5217394;28;20037;-47
2024/01/04 09:25:20;;;;;;;3.22;1.05;;;9.70;99.90;;;9.77;100.00;99742.56;5215685;28;20046;-47
2024/01/04 09:27:53;;;;;;;2.28;0.85;;;9.70;99.90;;;9.80;100.00;99753.06;5238131;28;20047;-48
2024/01/04 09:30:26;;;;;;;1.65;0.80;;;9.80;99.90;;;9.82;100.00;99756.56;5238208;28;20045;-47
2024/01/04 09:33:01;;;;;;;1.38;0.82;;;9.80;99.90;;;9.86;100.00;99763.59;5206041;28;20067;-47
2024/01/04 09:35:33;;;;;;;1.15;0.93;;;9.80;99.90;;;9.87;100.00;99764.47;5214516;28;20048;-48
2024/01/04 09:38:06;;;;;;;5.28;0.93;;;9.80;99.90;;;9.90;100.00;99768.00;5219795;28;20044;-48
2024/01/04 09:40:38;;;;;;;1.75;0.80;;;9.90;99.90;;;9.95;100.00;99778.53;5233169;28;20041;-48
2024/01/04 09:43:15;;;;;;;2.83;0.80;;;9.90;99.90;;;9.97;100.00;99771.63;5210550;28;20055;-47
2024/01/04 09:45:48;;;;;;;0.85;0.60;;;9.90;99.90;;;10.13;100.00;99770.22;5237310;28;20037;-48
2024/01/04 09:48:24;;;;;;;1.38;0.80;;;10.00;99.90;;;10.15;100.00;99773.72;5235269;28;20519;-48
2024/01/04 09:50:57;;;;;;;1.38;0.70;;;10.10;99.90;;;10.16;100.00;99775.47;5227570;28;20053;-49
2024/01/04 09:53:29;;;;;;;2.33;0.93;;;10.10;99.90;;;10.18;100.00;99779.88;5219013;28;20049;-48
2024/01/04 09:56:04;;;;;;;1.42;0.75;;;10.20;99.90;;;10.23;100.00;99786.06;5210574;28;20041;-47
2024/01/04 09:58:36;;;;;;;6.65;0.82;;;10.20;99.90;;;10.28;100.00;99781.84;5211686;28;20045;-48
2024/01/04 10:01:10;;;;;;;0.95;0.70;;;10.20;99.90;;;10.32;100.00;99786.28;5222092;28;20056;-48
2024/01/04 10:03:48;;;;;;;1.35;0.52;;;10.20;99.90;;;10.35;100.00;99790.66;5214599;28;20052;-47
2024/01/04 10:06:30;;;;;;;0.93;0.60;;;10.30;99.90;;;10.42;100.00;99802.94;5218249;28;20042;-49
2024/01/04 10:09:14;;;;;;;1.20;0.55;;;10.40;99.90;;;10.42;100.00;99797.75;5230898;28;20158;-48
2024/01/04 10:11:59;;;;;;;1.10;0.85;;;10.30;99.90;;;10.45;100.00;99803.03;5217642;28;20048;-48
2024/01/04 10:14:33;;;;;;;3.30;1.08;;;10.40;99.90;;;10.40;100.00;99799.44;5228833;28;20059;-47
2024/01/04 10:17:09;;;;;;;0.68;0.60;;;10.30;99.90;;;10.43;100.00;99802.13;5226055;28;20052;-47
2024/01/04 10:19:43;;;;;;;0.77;0.77;;;10.40;99.90;;;10.45;100.00;99799.56;5217231;28;20045;-48
2024/01/04 10:22:16;;;;;;;0.85;0.65;;;10.40;99.90;;;10.47;100.00;99801.31;5237359;28;20060;-48
2024/01/04 10:24:51;;;;;;;2.22;0.68;;;10.40;99.90;;;10.52;100.00;99804.03;5232155;28;20051;-48
2024/01/04 10:27:23;;;;;;;1.73;0.70;;;10.40;99.90;;;10.65;100.00;99799.94;5220967;28;20049;-48
2024/01/04 10:30:05;;;;;;;1.10;0.75;;;10.50;99.90;;;10.80;100.00;99805.41;5219043;28;20047;-48
2024/01/04 10:32:39;;;;;;;3.25;0.90;;;10.60;99.90;;;10.92;100.00;99810.84;5225249;28;20095;-48
2024/01/04 10:35:13;;;;;;;2.53;0.77;;;10.70;99.90;;;11.00;100.00;99808.38;5215387;28;20400;-49
2024/01/04 10:37:56;;;;;;;2.20;0.70;;;10.80;99.90;;;11.06;100.00;99800.66;5224516;28;20052;-48
2024/01/04 10:40:29;;;;;;;0.77;0.63;;;10.90;99.90;;;11.05;100.00;99806.72;5216241;28;20119;-48
2024/01/04 10:43:02;;;;;;;2.67;0.60;;;10.90;99.90;;;11.00;100.00;99814.47;5226994;28;20046;-48
2024/01/04 10:45:34;;;;;;;1.40;0.60;;;10.90;99.90;;;10.94;100.00;99822.16;5223209;28;20079;-48
2024/01/04 10:48:14;;;;;;;1.13;0.70;;;10.80;99.90;;;10.89;100.00;99816.03;5216521;28;20045;-48
2024/01/04 10:50:47;;;;;;;0.52;0.52;;;10.80;99.90;;;10.80;100.00;99821.06;5212172;28;20045;-47